ESSP

Norrköping Airport

Norrköping, Sweden
METAR ESSP 230950Z 35005KT 6000 -SN BKN008 BKN011 M02/M04 Q1027 R27/420171
Observed Flight Rules
Feb-23 @ 09:50 UTC (36 minutes ago) Instrument Flight Rules
Wind Visibility Clouds Conditions
350° at 5 knots 6,003 meters
  • Broken at 800' AGL
  • Broken at 1,100' AGL
  • Light Snow
Temperatures Readings
Current -2°C / 28°F
Dewpoint -4°C / 25°F
Humidity 86%
Altimeter 30.32" Hg
Pressure 1027 hPa
Elevation 8
METAR ESSP 230950Z 35005KT 6000 -SN BKN008 BKN011 M02/M04 Q1027 R27/420171
Observed Flight Rules
Feb-23 @ 09:50 UTC
(36 minutes ago)
IFR
Wind Visibility
350° at 5 knots 6,003 meters
Clouds
  • Broken at 800' AGL
  • Broken at 1,100' AGL
Conditions
  • Light Snow
Temperature Dewpoint
-2°C / 28°F -4°C / 25°F
Humidity Altimeter Pressure
86% 30.32" Hg 1027 hPa